Data for 04/07/2008

Time Sea-Level Adjusted Pressure Absolute Pressure Temperature Relative Humidity Dew Point   
(mb) (inHg) (mb) (inHg) (C) (F) (%) (C) (F)
00:05 1014 29.94 843 24.89 -0 32 90 -1.4 29.4
00:10 1014 29.94 843 24.89 -0 32 91 -1.4 29.5
00:15 1014 29.94 843 24.89 0 32.1 91 -1.3 29.7
00:20 1014 29.94 843 24.89 -0.1 31.9 90 -1.4 29.4
00:25 1014 29.94 843 24.89 -0.3 31.5 91 -1.5 29.3
00:30 1014 29.94 843 24.89 -0.2 31.7 91 -1.4 29.4
00:35 1014 29.94 843 24.89 -0.2 31.7 91 -1.5 29.4
00:40 1014 29.94 843 24.89 -0.2 31.7 91 -1.6 29.2
00:45 1014 29.94 843 24.89 -0.4 31.3 91 -1.8 28.8
00:50 1014 29.94 843 24.89 -0.7 30.7 92 -1.9 28.5
00:55 1014 29.94 843 24.89 -0.9 30.4 92 -2 28.4
01:00 1014 29.94 843 24.89 -1 30.2 92 -2.1 28.2
01:05 1014 29.94 843 24.89 -1.2 29.9 93 -2.2 28.1
01:10 1014 29.94 843 24.89 -1.3 29.7 93 -2.2 28
01:15 1014 29.94 843 24.89 -1.1 30 93 -2.1 28.2
01:20 1014 29.94 843 24.89 -1 30.1 93 -2.1 28.3
01:25 1014 29.94 843 24.89 -1.1 30.1 93 -2.1 28.2
01:30 1014 29.94 843 24.89 -1.3 29.7 93 -2.3 27.9
01:35 1014 29.94 843 24.89 -1.4 29.4 93 -2.4 27.7
01:40 1014 29.94 843 24.89 -1.5 29.4 93 -2.4 27.7
01:45 1014 29.94 843 24.89 -1.6 29.2 93 -2.5 27.5
01:50 1014 29.94 843 24.89 -1.7 29 93 -2.7 27.2
01:55 1014 29.94 843 24.89 -1.6 29.1 93 -2.7 27.1
02:00 1014 29.94 843 24.89 -1.6 29.1 92 -2.7 27.2
02:05 1013 29.91 843 24.89 -1.8 28.8 93 -2.8 26.9
02:10 1013 29.91 843 24.89 -2 28.4 93 -2.9 26.7
02:15 1013 29.91 843 24.89 -2.1 28.2 94 -3 26.6
02:20 1014 29.94 843 24.89 -2.1 28.2 94 -3 26.6
02:25 1014 29.94 843 24.89 -2 28.4 93 -3.1 26.5
02:30 1013 29.91 843 24.89 -2.1 28.2 93 -3.1 26.3
02:35 1013 29.91 843 24.89 -2.2 28 92 -3.3 26
02:40 1013 29.91 843 24.89 -2.1 28.2 91 -3.4 25.9
02:45 1013 29.91 843 24.89 -2 28.4 90 -3.4 25.8
02:50 1013 29.91 843 24.89 -2 28.5 89 -3.5 25.6
02:55 1013 29.91 842 24.86 -2 28.4 88 -3.7 25.4
03:00 1013 29.91 842 24.86 -2.1 28.2 88 -3.8 25.2
03:05 1013 29.91 843 24.89 -2.2 28 89 -3.8 25.1
03:10 1013 29.91 843 24.89 -2.3 27.8 88 -4 24.8
03:15 1013 29.91 843 24.89 -2.4 27.7 88 -4.1 24.6
03:20 1013 29.91 843 24.89 -2.3 27.9 88 -4 24.8
03:25 1013 29.91 842 24.86 -2.2 28 88 -4 24.8
03:30 1013 29.91 842 24.86 -2.2 28.1 87 -4 24.8
03:35 1013 29.91 842 24.86 -2.3 27.8 87 -4.1 24.6
03:40 1013 29.91 842 24.86 -2.2 28 88 -4 24.8
03:45 1013 29.91 842 24.86 -2 28.5 87 -3.8 25.1
03:50 1013 29.91 842 24.86 -1.8 28.7 87 -3.8 25.2
03:55 1013 29.91 842 24.86 -1.7 29 86 -3.8 25.2
04:00 1013 29.91 842 24.86 -1.7 29 86 -3.8 25.2
04:05 1013 29.91 842 24.86 -1.8 28.7 86 -3.9 25.1
04:10 1013 29.91 842 24.86 -1.8 28.7 87 -3.8 25.2
04:15 1013 29.91 842 24.86 -1.7 28.9 86 -3.7 25.3
04:20 1013 29.91 842 24.86 -1.7 28.9 86 -3.8 25.1
04:25 1013 29.91 842 24.86 -1.8 28.8 86 -3.9 25
04:30 1013 29.91 842 24.86 -1.9 28.6 86 -4 24.8
04:35 1013 29.91 842 24.86 -2 28.4 86 -4 24.7
04:40 1013 29.91 842 24.86 -1.9 28.6 86 -4 24.8
04:45 1013 29.91 842 24.86 -1.7 29 85 -3.9 25
04:50 1013 29.91 842 24.86 -1.6 29.2 84 -3.9 24.9
04:55 1013 29.91 842 24.86 -1.7 29 84 -4 24.7
05:00 1013 29.91 842 24.86 -1.8 28.8 84 -4.1 24.6
05:05 1013 29.91 842 24.86 -1.7 29 83 -4.2 24.4
05:10 1013 29.91 842 24.86 -1.6 29.2 80 -4.6 23.7
05:15 1013 29.91 842 24.86 -1.9 28.7 80 -4.8 23.3
05:20 1013 29.91 842 24.86 -2.2 28 81 -5 23
05:25 1013 29.91 842 24.86 -2.4 27.6 82 -5.1 22.8
05:30 1013 29.91 842 24.86 -2.5 27.4 83 -5.1 22.8
05:35 1013 29.91 842 24.86 -2.6 27.3 84 -5 23.1
05:40 1013 29.91 842 24.86 -2.6 27.3 84 -4.9 23.1
05:45 1013 29.91 842 24.86 -2.5 27.4 84 -4.9 23.2
05:50 1013 29.91 842 24.86 -2.5 27.5 85 -4.8 23.4
05:55 1013 29.91 842 24.86 -2.6 27.4 85 -4.7 23.5
06:00 1013 29.91 842 24.86 -2.4 27.6 85 -4.6 23.8
06:05 1013 29.91 842 24.86 -2.3 27.8 84 -4.6 23.6
06:10 1013 29.91 842 24.86 -2.2 28 84 -4.6 23.7
06:15 1013 29.91 843 24.89 -2.2 28 84 -4.6 23.7
06:20 1013 29.91 843 24.89 -2.3 27.9 84 -4.7 23.6
06:25 1013 29.91 843 24.89 -2.4 27.7 83 -4.9 23.2
06:30 1013 29.91 843 24.89 -2.3 27.8 84 -4.8 23.4
06:35 1013 29.91 843 24.89 -2.3 27.8 84 -4.7 23.6
06:40 1013 29.91 843 24.89 -2.4 27.6 84 -4.7 23.5
06:45 1014 29.94 843 24.89 -2.4 27.7 85 -4.7 23.6
06:50 1014 29.94 843 24.89 -2.4 27.7 85 -4.6 23.7
06:55 1014 29.94 843 24.89 -2.4 27.6 85 -4.6 23.8
07:00 1014 29.94 843 24.89 -2.3 27.9 86 -4.4 24.1
07:05 1014 29.94 843 24.89 -2.2 28 86 -4.3 24.3
07:10 1014 29.94 843 24.89 -2.3 27.9 86 -4.3 24.3
07:15 1014 29.94 843 24.89 -2 28.3 85 -4.2 24.4
07:20 1014 29.94 843 24.89 -1.9 28.6 85 -4.1 24.6
07:25 1014 29.94 843 24.89 -1.9 28.5 85 -4.2 24.5
07:30 1014 29.94 843 24.89 -2.1 28.3 85 -4.2 24.4
07:35 1014 29.94 843 24.89 -2.1 28.2 86 -4.2 24.4
07:40 1014 29.94 843 24.89 -2.3 27.9 86 -4.3 24.3
07:45 1014 29.94 843 24.89 -2.2 28.1 86 -4.2 24.5
07:50 1014 29.94 843 24.89 -1.9 28.6 86 -4 24.8
07:55 1014 29.94 843 24.89 -1.6 29.1 84 -4 24.8
08:00 1014 29.94 843 24.89 -1.4 29.5 83 -4 24.8
08:05 1014 29.94 843 24.89 -1.4 29.6 82 -4 24.8
08:10 1014 29.94 843 24.89 -1.4 29.5 82 -4 24.7
08:15 1014 29.94 843 24.89 -1.1 30 82 -3.9 25
08:20 1014 29.94 843 24.89 -1 30.3 81 -3.9 25.1
08:25 1014 29.94 843 24.89 -0.8 30.5 80 -3.9 25
08:30 1014 29.94 843 24.89 -0.7 30.7 80 -3.8 25.2
08:35 1014 29.94 843 24.89 -0.4 31.2 81 -3.3 26
08:40 1014 29.94 843 24.89 0.1 32.2 80 -2.9 26.8
08:45 1014 29.94 843 24.89 0.5 32.8 81 -2.5 27.5
08:50 1014 29.94 843 24.89 1.1 33.9 78 -2.4 27.6
08:55 1014 29.94 843 24.89 1.1 34 78 -2.4 27.7
09:00 1014 29.94 843 24.89 1.5 34.6 77 -2.1 28.2
09:05 1014 29.94 843 24.89 1.8 35.2 77 -1.8 28.7
09:10 1014 29.94 843 24.89 2 35.6 76 -1.9 28.7
09:15 1014 29.94 843 24.89 1.6 34.9 77 -1.9 28.5
09:20 1014 29.94 844 24.92 1.3 34.3 80 -1.8 28.8
09:25 1014 29.94 844 24.92 0.9 33.6 83 -1.6 29
09:30 1014 29.94 844 24.92 0.7 33.2 85 -1.5 29.3
09:35 1014 29.94 844 24.92 0.4 32.7 87 -1.5 29.3
09:40 1014 29.94 844 24.92 -0.1 31.8 89 -1.7 28.9
09:45 1014 29.94 844 24.92 -0.6 31 91 -1.8 28.7
09:50 1014 29.94 844 24.92 -0.5 31.2 92 -1.6 29.1
09:55 1014 29.94 844 24.92 -0.2 31.6 93 -1.2 29.8
10:00 1014 29.94 844 24.92 0.1 32.3 93 -0.9 30.4
10:05 1014 29.94 844 24.92 0.5 32.9 92 -0.7 30.7
10:10 1014 29.94 844 24.92 0.6 33 92 -0.6 30.9
10:15 1014 29.94 843 24.89 0.6 33.1 92 -0.6 31
10:20 1014 29.94 843 24.89 0.4 32.8 92 -0.8 30.6
10:25 1014 29.94 843 24.89 0.2 32.4 92 -1 30.2
10:30 1014 29.94 843 24.89 0.3 32.5 92 -0.8 30.5
10:35 1014 29.94 843 24.89 0.2 32.4 92 -1 30.2
10:40 1014 29.94 843 24.89 0.3 32.6 92 -0.9 30.4
10:45 1014 29.94 844 24.92 0.6 33.2 92 -0.6 31
10:50 1014 29.94 844 24.92 1.1 34.1 91 -0.2 31.6
10:55 1014 29.94 844 24.92 1.6 34.9 90 0.1 32.2
11:00 1014 29.94 844 24.92 2 35.6 88 0.2 32.4
11:05 1014 29.94 844 24.92 1.9 35.4 89 0.3 32.6
11:10 1014 29.94 844 24.92 2 35.6 89 0.3 32.6
11:15 1014 29.94 844 24.92 2 35.7 86 -0 31.9
11:20 1014 29.94 844 24.92 2 35.7 86 -0 31.9
11:25 1014 29.94 844 24.92 2.3 36.2 84 -0.1 31.7
11:30 1014 29.94 844 24.92 2.4 36.2 83 -0.3 31.5
11:35 1014 29.94 844 24.92 2.9 37.2 77 -0.7 30.7
11:40 1014 29.94 844 24.92 2.6 36.6 77 -1.1 30
11:45 1014 29.94 843 24.89 3 37.3 76 -0.9 30.4
11:50 1014 29.94 843 24.89 2.7 36.9 76 -1.1 30
11:55 1014 29.94 843 24.89 2.2 36 73 -2 28.3
12:00 1014 29.94 843 24.89 2.6 36.7 74 -1.7 29
12:05 1014 29.94 843 24.89 4.4 39.9 68 -1 30.3
12:10 1014 29.94 843 24.89 4.5 40.1 67 -1 30.2
12:15 1014 29.94 843 24.89 4 39.2 66 -1.8 28.8
12:20 1014 29.94 843 24.89 3.5 38.2 66 -2.3 27.9
12:25 1014 29.94 843 24.89 4.2 39.6 65 -1.8 28.8
12:30 1014 29.94 843 24.89 4.5 40.2 63 -1.9 28.5
12:35 1014 29.94 843 24.89 5.1 41.3 58 -2.4 27.7
12:40 1014 29.94 843 24.89 5.8 42.4 56 -2.4 27.8
12:45 1014 29.94 843 24.89 5.7 42.2 53 -3 26.5
12:50 1014 29.94 843 24.89 5.9 42.7 51 -3.4 25.9
12:55 1014 29.94 843 24.89 6.1 43 52 -2.9 26.7
13:00 1014 29.94 843 24.89 5.8 42.4 53 -3 26.7
13:05 1014 29.94 843 24.89 5.2 41.4 56 -2.8 27
13:10 1014 29.94 843 24.89 5.3 41.6 55 -3.1 26.5
13:15 1014 29.94 843 24.89 5.3 41.6 52 -3.8 25.1
13:20 1014 29.94 843 24.89 4.9 40.8 52 -4.2 24.4
13:25 1014 29.94 843 24.89 5.3 41.6 48 -4.8 23.3
13:30 1014 29.94 843 24.89 5.4 41.6 49 -4.4 24
13:35 1013 29.91 843 24.89 5.2 41.3 51 -4.1 24.6
13:40 1013 29.91 843 24.89 5.4 41.7 49 -4.4 24.1
13:45 1013 29.91 843 24.89 4.9 40.8 51 -4.4 24.1
13:50 1013 29.91 843 24.89 5.1 41.2 50 -4.5 24
13:55 1013 29.91 843 24.89 5.8 42.5 47 -4.5 23.8
14:00 1013 29.91 843 24.89 5.9 42.6 46 -4.8 23.3
14:05 1013 29.91 842 24.86 5.5 41.8 48 -4.8 23.4
14:10 1013 29.91 842 24.86 6.2 43.1 45 -4.8 23.4
14:15 1013 29.91 842 24.86 6.8 44.2 43 -5 23
14:20 1013 29.91 842 24.86 5.5 41.9 46 -5.3 22.4
14:25 1013 29.91 842 24.86 5.3 41.5 46 -5.5 22
14:30 1013 29.91 842 24.86 6.1 42.9 44 -5.2 22.6
14:35 1013 29.91 842 24.86 6.3 43.4 45 -4.8 23.4
14:40 1013 29.91 842 24.86 5.9 42.5 45 -5.1 22.8
14:45 1013 29.91 842 24.86 5.9 42.7 45 -5.1 22.7
14:50 1013 29.91 842 24.86 6.1 43 44 -5.3 22.5
14:55 1013 29.91 842 24.86 6.2 43.2 44 -5.2 22.6
15:00 1013 29.91 842 24.86 6.3 43.4 47 -4.1 24.5
15:05 1013 29.91 842 24.86 5.5 41.9 49 -4.3 24.2
15:10 1013 29.91 842 24.86 5.5 41.8 48 -4.7 23.6
15:15 1013 29.91 842 24.86 5.3 41.6 47 -5 22.9
15:20 1013 29.91 842 24.86 5.4 41.6 44 -5.8 21.6
15:25 1013 29.91 842 24.86 5.5 41.8 39 -7.6 18.4
15:30 1013 29.91 842 24.86 5.4 41.8 39 -7.5 18.6
15:35 1013 29.91 842 24.86 5.9 42.7 39 -6.9 19.5
15:40 1013 29.91 842 24.86 6.1 43 40 -6.4 20.4
15:45 1013 29.91 842 24.86 6.1 42.9 39 -6.9 19.6
15:50 1013 29.91 842 24.86 6.3 43.3 37 -7.5 18.5
15:55 1013 29.91 842 24.86 6.6 43.9 35 -7.8 17.9
16:00 1013 29.91 842 24.86 7.4 45.4 32 -8.3 17.1
16:05 1013 29.91 842 24.86 6.7 44.1 34 -7.9 17.8
16:10 1013 29.91 842 24.86 6 42.8 37 -7.5 18.5
16:15 1013 29.91 842 24.86 5.8 42.5 38 -7.3 18.8
16:20 1013 29.91 842 24.86 6 42.9 39 -6.9 19.6
16:25 1013 29.91 842 24.86 6.1 43.1 40 -6.5 20.2
16:30 1013 29.91 842 24.86 6.4 43.6 41 -5.9 21.4
16:35 1013 29.91 842 24.86 6.3 43.4 45 -4.8 23.4
16:40 1013 29.91 842 24.86 6 42.8 51 -3.4 25.9
16:45 1013 29.91 842 24.86 5.5 41.9 54 -3.1 26.4
16:50 1013 29.91 842 24.86 5.2 41.3 55 -3.1 26.4
16:55 1013 29.91 842 24.86 5 41 55 -3.2 26.3
17:00 1013 29.91 842 24.86 4.7 40.4 57 -3 26.6
17:05 1013 29.91 842 24.86 4.5 40 60 -2.6 27.3
17:10 1013 29.91 842 24.86 4.3 39.7 61 -2.5 27.5
17:15 1013 29.91 842 24.86 3.9 39.1 62 -2.8 27
17:20 1013 29.91 842 24.86 3.8 38.9 62 -2.7 27.2
17:25 1013 29.91 842 24.86 3.5 38.3 70 -1.6 29.2
17:30 1013 29.91 843 24.89 2.7 36.9 72 -1.9 28.6
17:35 1013 29.91 843 24.89 2.5 36.4 66 -3.2 26.2
17:40 1014 29.94 843 24.89 2.3 36.2 66 -3.4 25.9
17:45 1013 29.91 843 24.89 2.2 36 67 -3.4 25.9
17:50 1013 29.91 843 24.89 2.1 35.8 69 -3 26.6
17:55 1013 29.91 843 24.89 2.1 35.9 70 -2.8 27
18:00 1013 29.91 843 24.89 2.1 35.7 68 -3.3 26.1
18:05 1013 29.91 843 24.89 2.7 36.8 64 -3.5 25.7
18:10 1013 29.91 843 24.89 2.9 37.2 65 -3 26.6
18:15 1014 29.94 843 24.89 3.1 37.5 67 -2.5 27.4
18:20 1014 29.94 843 24.89 2.9 37.1 66 -2.8 27
18:25 1014 29.94 843 24.89 2.4 36.4 72 -2.2 28.1
18:30 1014 29.94 843 24.89 1.9 35.5 76 -1.8 28.8
18:35 1014 29.94 843 24.89 1.5 34.7 79 -1.8 28.8
18:40 1014 29.94 843 24.89 1.2 34.2 83 -1.4 29.4
18:45 1014 29.94 843 24.89 1.1 34 84 -1.3 29.7
18:50 1014 29.94 843 24.89 1.2 34.1 84 -1.2 29.9
18:55 1014 29.94 843 24.89 1.3 34.3 83 -1.3 29.6
19:00 1014 29.94 843 24.89 1.4 34.5 81 -1.5 29.3
19:05 1014 29.94 843 24.89 1.5 34.7 81 -1.5 29.4
19:10 1014 29.94 843 24.89 1.6 34.8 80 -1.6 29.2
19:15 1014 29.94 843 24.89 1.3 34.3 81 -1.6 29.1
19:20 1014 29.94 843 24.89 1.5 34.7 83 -1.1 30.1
19:25 1014 29.94 844 24.92 1.6 34.8 84 -0.8 30.6
19:30 1014 29.94 844 24.92 1.4 34.5 86 -0.7 30.7
19:35 1014 29.94 844 24.92 1.2 34.2 87 -0.7 30.8
19:40 1015 29.97 844 24.92 1.1 34 88 -0.6 30.9
19:45 1015 29.97 844 24.92 1 33.8 90 -0.5 31.2
19:50 1015 29.97 844 24.92 0.9 33.6 91 -0.4 31.2
19:55 1015 29.97 844 24.92 0.8 33.4 92 -0.4 31.3
20:00 1015 29.97 844 24.92 0.8 33.4 93 -0.3 31.5
20:05 1015 29.97 844 24.92 0.8 33.5 93 -0.2 31.6
20:10 1015 29.97 844 24.92 0.9 33.6 93 -0.1 31.8
20:15 1015 29.97 844 24.92 0.9 33.6 93 -0.1 31.8
20:20 1015 29.97 844 24.92 0.7 33.3 93 -0.2 31.6
20:25 1015 29.97 844 24.92 0.7 33.2 94 -0.3 31.5
20:30 1015 29.97 844 24.92 0.6 33.1 94 -0.3 31.5
20:35 1015 29.97 844 24.92 0.5 33 94 -0.3 31.5
20:40 1015 29.97 844 24.92 0.5 32.9 94 -0.3 31.4
20:45 1015 29.97 844 24.92 0.4 32.8 95 -0.3 31.4
20:50 1015 29.97 844 24.92 0.4 32.6 95 -0.3 31.4
20:55 1015 29.97 844 24.92 0.3 32.5 96 -0.4 31.4
21:00 1015 29.97 844 24.92 0.4 32.7 96 -0.3 31.5
21:05 1015 29.97 844 24.92 0.4 32.7 96 -0.3 31.5
21:10 1015 29.97 844 24.92 0.4 32.6 96 -0.2 31.6
21:15 1015 29.97 844 24.92 0.3 32.6 96 -0.3 31.5
21:20 1015 29.97 844 24.92 0.3 32.6 96 -0.2 31.6
21:25 1015 29.97 844 24.92 0.4 32.7 96 -0.2 31.7
21:30 1015 29.97 844 24.92 0.4 32.6 96 -0.2 31.6
21:35 1015 29.97 844 24.92 0.3 32.6 96 -0.2 31.7
21:40 1015 29.97 844 24.92 0.4 32.7 96 -0.1 31.8
21:45 1015 29.97 845 24.95 0.4 32.7 96 -0.1 31.8
21:50 1015 29.97 845 24.95 0.4 32.7 96 -0.1 31.8
21:55 1015 29.97 844 24.92 0.4 32.8 96 -0.1 31.8
22:00 1015 29.97 845 24.95 0.4 32.7 96 -0.1 31.8
22:05 1015 29.97 845 24.95 0.4 32.8 96 -0.1 31.9
22:10 1015 29.97 845 24.95 0.5 32.9 96 -0 32
22:15 1015 29.97 845 24.95 0.4 32.7 96 -0.1 31.8
22:20 1015 29.97 845 24.95 0.3 32.6 96 -0.2 31.7
22:25 1015 29.97 845 24.95 0.3 32.5 97 -0.2 31.7
22:30 1015 29.97 845 24.95 0.4 32.7 97 -0.1 31.9
22:35 1015 29.97 845 24.95 0.2 32.3 97 -0.3 31.4
22:40 1015 29.97 845 24.95 0 32 97 -0.4 31.3
22:45 1015 29.97 845 24.95 0.1 32.1 97 -0.3 31.4
22:50 1015 29.97 845 24.95 -0.1 31.8 98 -0.4 31.2
22:55 1015 29.97 845 24.95 -0.1 31.7 98 -0.5 31.2
23:00 1015 29.97 845 24.95 -0.2 31.7 98 -0.4 31.2
23:05 1015 29.97 845 24.95 -0.1 31.8 98 -0.4 31.3
23:10 1015 29.97 845 24.95 -0 32 98 -0.3 31.5
23:15 1015 29.97 844 24.92 0.1 32.2 98 -0.1 31.8
23:20 1015 29.97 844 24.92 0.1 32.2 98 -0.2 31.6
23:25 1015 29.97 844 24.92 0.1 32.1 98 -0.2 31.6
23:30 1015 29.97 844 24.92 0.1 32.3 98 -0.1 31.8
23:35 1015 29.97 844 24.92 0.2 32.3 164 7.2 44.9
23:40 1015 29.97 844 24.92 0.1 32.3 164 7.1 44.8
23:45 1015 29.97 844 24.92 0.1 32.2 164 7.1 44.8
23:50 1015 29.97 844 24.92 0.1 32.2 164 7.1 44.8
23:55 1015 29.97 844 24.92 0.2 32.3 164 7.1 44.9
24:00 1015 29.97 844 24.92 0.2 32.3 164 7.2 44.9